Time;durP1;ratioP1;P1;durP2;ratioP2;P2;SDS_P1;SDS_P2;PMS_P1;PMS_P2;Temp;Humidity;BMP_temperature;BMP_pressure;BME280_temperature;BME280_humidity;BME280_pressure;Samples;Min_cycle;Max_cycle;Signal;HPM_P1;HPM_P2
2024/01/30 00:01:37;;;;;;;;;13.67;13.67;;;;;13.86;87.88;-19581.31;5031931;28;45553;-84
2024/01/30 00:04:03;;;;;;;;;16.33;14.00;;;;;13.88;88.28;-19581.72;5018203;27;46845;-84
2024/01/30 00:06:28;;;;;;;;;15.33;15.33;;;;;13.51;87.98;-19572.06;5015225;27;45454;-84
2024/01/30 00:08:54;;;;;;;;;20.33;16.33;;;;;13.43;87.94;-19569.91;5028988;27;45387;-84
2024/01/30 00:11:19;;;;;;;;;13.00;13.00;;;;;13.71;87.85;-19577.28;5068265;27;45323;-84
2024/01/30 00:13:44;;;;;;;;;13.00;10.33;;;;;13.81;88.06;-19579.97;5014971;27;45430;-84
2024/01/30 00:16:20;;;;;;;;;14.67;11.67;;;;;13.68;88.05;-19576.63;5030700;28;45609;-83
2024/01/30 00:18:45;;;;;;;;;17.67;16.33;;;;;13.68;88.01;-19576.50;5015966;28;45481;-86
2024/01/30 00:21:11;;;;;;;;;12.67;12.00;;;;;13.69;87.98;-19576.88;5015496;28;45463;-86
2024/01/30 00:23:36;;;;;;;;;14.33;13.33;;;;;12.80;87.98;-19553.34;5012011;27;45560;-81
2024/01/30 00:26:02;;;;;;;;;19.33;16.67;;;;;13.94;87.61;-19583.47;5013169;27;52684;-86
2024/01/30 00:28:27;;;;;;;;;16.67;16.67;;;;;13.54;87.65;-19572.72;5013238;27;45586;-86
2024/01/30 00:30:52;;;;;;;;;17.33;16.00;;;;;13.65;88.12;-19575.69;5012305;27;45446;-87
2024/01/30 00:33:18;;;;;;;;;18.00;14.00;;;;;13.55;88.00;-19573.13;5005219;27;46652;-86
2024/01/30 00:35:43;;;;;;;;;18.33;16.00;;;;;13.64;87.96;-19575.41;5014531;27;45497;-83
2024/01/30 00:38:08;;;;;;;;;17.67;16.67;;;;;13.51;88.16;-19572.19;5010927;27;49133;-83
2024/01/30 00:40:34;;;;;;;;;17.00;13.33;;;;;13.87;88.12;-19581.47;5034364;27;45494;-85
2024/01/30 00:42:59;;;;;;;;;23.33;17.33;;;;;13.54;88.51;-19572.84;5019195;27;45435;-85
2024/01/30 00:45:25;;;;;;;;;15.67;15.67;;;;;13.83;88.50;-19580.38;5014759;27;45769;-86
2024/01/30 00:47:50;;;;;;;;;20.00;17.33;;;;;13.23;88.61;-19564.78;5014332;27;45549;-86
2024/01/30 00:50:15;;;;;;;;;20.00;17.33;;;;;12.88;88.89;-19555.50;5014780;27;45426;-86
2024/01/30 00:52:42;;;;;;;;;16.33;16.33;;;;;13.67;89.08;-19576.22;5018125;27;45440;-87
2024/01/30 00:55:07;;;;;;;;;18.33;16.00;;;;;13.30;88.89;-19566.66;5015587;27;45884;-86
2024/01/30 00:57:32;;;;;;;;;22.00;21.33;;;;;13.60;89.18;-19574.34;5014359;27;45646;-86
2024/01/30 00:59:58;;;;;;;;;19.33;17.33;;;;;13.72;89.13;-19577.69;5014560;27;45589;-86
2024/01/30 06:02:54;;;;;;;;;10.67;10.33;;;;;13.22;98.65;152610.75;5003694;23;46618;-80
2024/01/30 06:05:19;;;;;;;;;11.33;9.33;;;;;13.22;98.70;149837.44;5011442;28;45410;-77
2024/01/30 06:07:45;;;;;;;;;12.33;9.00;;;;;13.24;98.86;150188.03;5008731;28;45335;-78
2024/01/30 06:10:10;;;;;;;;;12.00;11.00;;;;;13.27;98.40;145345.13;5015144;28;46132;-77
2024/01/30 06:12:35;;;;;;;;;11.00;11.00;;;;;13.21;98.63;144636.34;5009794;28;45510;-76
2024/01/30 06:15:01;;;;;;;;;12.33;11.33;;;;;13.30;98.28;145352.56;5007565;28;45435;-78
2024/01/30 06:17:27;;;;;;;;;14.67;12.33;;;;;13.23;98.58;144641.28;5008823;28;45637;-78
2024/01/30 06:19:52;;;;;;;;;10.33;10.33;;;;;13.13;98.19;143924.16;5002778;28;46417;-78
2024/01/30 06:22:18;;;;;;;;;8.67;8.67;;;;;13.27;98.38;144651.16;5011727;28;45454;-78
2024/01/30 06:24:44;;;;;;;;;11.00;9.67;;;;;13.33;98.49;145012.41;4998765;28;45720;-78
2024/01/30 06:27:10;;;;;;;;;11.67;9.67;;;;;13.38;98.20;141907.16;5004709;28;45510;-77
2024/01/30 06:29:35;;;;;;;;;13.67;10.33;;;;;13.28;98.46;140155.28;5006249;28;47207;-76
2024/01/30 06:32:01;;;;;;;;;9.67;9.67;;;;;13.44;98.08;136386.72;5007687;28;45430;-74
2024/01/30 06:34:26;;;;;;;;;8.67;8.00;;;;;13.29;97.74;131862.28;4990839;28;45487;-77
2024/01/30 06:36:51;;;;;;;;;17.00;13.67;;;;;13.42;97.85;131199.91;4998382;28;45607;-78
2024/01/30 06:39:16;;;;;;;;;13.00;11.00;;;;;13.24;98.23;134960.22;5006283;28;46597;-78
2024/01/30 06:41:42;;;;;;;;;10.33;10.33;;;;;13.47;98.07;133974.34;5009983;28;45690;-78
2024/01/30 06:44:08;;;;;;;;;10.33;10.33;;;;;13.49;97.93;131906.25;5001735;28;45534;-79
2024/01/30 06:46:34;;;;;;;;;11.00;9.67;;;;;13.35;97.85;129804.66;5006825;28;45521;-79
2024/01/30 06:48:59;;;;;;;;;16.00;11.67;;;;;13.51;97.54;126389.63;5007405;28;46562;-80
2024/01/30 06:51:25;;;;;;;;;11.33;11.33;;;;;13.52;97.62;127770.59;4981521;28;45754;-80
2024/01/30 06:53:50;;;;;;;;;16.00;14.00;;;;;13.54;98.09;127773.88;5003014;28;53844;-81
2024/01/30 06:56:20;;;;;;;;;13.67;11.00;;;;;13.47;97.75;127760.75;4997851;28;45508;-80
2024/01/30 06:58:46;;;;;;;;;8.33;7.00;;;;;13.49;97.74;130870.31;5007318;28;47042;-80
2024/01/30 07:01:11;;;;;;;;;14.00;13.00;;;;;13.58;98.21;133308.44;5010629;28;45519;-80
2024/01/30 07:03:37;;;;;;;;;15.33;15.33;;;;;13.44;97.81;131550.78;5012308;28;45622;-79
2024/01/30 07:06:02;;;;;;;;;12.00;11.33;;;;;13.44;97.50;130169.81;5009010;28;45477;-80
2024/01/30 07:08:28;;;;;;;;;15.33;13.67;;;;;13.65;97.98;130214.28;5006927;28;47322;-81
2024/01/30 07:10:55;;;;;;;;;13.00;11.00;;;;;13.66;97.85;127801.16;4998182;28;56478;-79
2024/01/30 07:13:20;;;;;;;;;19.67;14.67;;;;;13.65;98.18;132287.81;5004259;28;45447;-80
2024/01/30 07:15:47;;;;;;;;;16.67;15.67;;;;;13.68;98.40;135405.25;5011478;28;45411;-79
2024/01/30 07:18:13;;;;;;;;;14.00;13.67;;;;;13.72;98.33;133339.19;5014260;28;46815;-81
2024/01/30 07:20:45;;;;;;;;;16.00;13.67;;;;;13.73;97.90;132304.75;5015408;28;45717;-80
2024/01/30 07:23:13;;;;;;;;;15.67;13.67;;;;;13.76;98.25;130928.47;5013283;28;45490;-79
2024/01/30 07:25:41;;;;;;;;;14.33;14.33;;;;;13.77;97.97;130239.94;5019337;28;45455;-79
2024/01/30 07:28:09;;;;;;;;;14.00;13.00;;;;;13.77;97.96;132313.81;4988296;28;47792;-80
2024/01/30 07:30:34;;;;;;;;;14.00;12.33;;;;;13.48;98.11;131903.97;4997035;28;45431;-81
2024/01/30 07:33:00;;;;;;;;;13.33;11.33;;;;;13.84;98.23;131982.94;5014235;28;45595;-80
2024/01/30 07:35:25;;;;;;;;;16.67;14.33;;;;;13.70;97.42;123325.63;5013550;28;45384;-81
2024/01/30 07:37:50;;;;;;;;;19.00;13.33;;;;;13.77;97.67;119892.84;4995028;28;48447;-80
2024/01/30 07:40:16;;;;;;;;;13.00;13.00;;;;;13.60;97.65;121924.91;5013847;28;45634;-80
2024/01/30 07:42:42;;;;;;;;;16.67;16.67;;;;;13.85;97.97;125424.69;5014319;28;45423;-81
2024/01/30 07:45:07;;;;;;;;;17.33;16.67;;;;;13.87;98.09;127154.47;5007478;28;45586;-84
2024/01/30 07:47:33;;;;;;;;;13.00;13.00;;;;;13.87;97.85;122670.75;5007401;28;45995;-80
2024/01/30 07:49:58;;;;;;;;;15.33;15.00;;;;;13.87;97.79;126465.25;4999700;28;45355;-80
2024/01/30 07:52:23;;;;;;;;;18.33;17.00;;;;;13.89;98.01;125778.34;5013520;28;46330;-80
2024/01/30 07:54:50;;;;;;;;;54.33;42.67;;;;;13.81;98.26;126797.38;5003892;28;45768;-83
2024/01/30 07:57:15;;;;;;;;;16.00;16.00;;;;;13.76;98.31;130237.69;4992761;28;46147;-82
2024/01/30 07:59:44;;;;;;;;;17.33;16.67;;;;;13.92;98.16;128546.34;5011627;28;46681;-82
2024/01/30 08:02:10;;;;;;;;;19.33;14.00;;;;;13.72;98.60;127469.16;5022555;28;45565;-83
2024/01/30 08:04:36;;;;;;;;;17.33;16.00;;;;;13.93;98.29;129930.09;5014525;28;45861;-84
2024/01/30 08:07:01;;;;;;;;;20.00;14.67;;;;;13.91;98.04;131307.56;5013502;28;47312;-84
2024/01/30 08:09:26;;;;;;;;;16.00;16.00;;;;;13.99;98.16;129943.38;5014184;28;45513;-84
2024/01/30 08:11:52;;;;;;;;;17.33;13.67;;;;;13.91;98.07;126819.06;4996373;28;45518;-85
2024/01/30 08:14:18;;;;;;;;;20.67;16.00;;;;;13.91;97.86;121988.56;5013815;28;52330;-86
2024/01/30 08:16:43;;;;;;;;;21.00;16.33;;;;;14.02;98.26;126841.81;5014128;28;45502;-86
2024/01/30 08:19:09;;;;;;;;;12.33;12.33;;;;;14.04;97.94;124775.22;5016976;28;54158;-86
2024/01/30 08:21:36;;;;;;;;;29.33;23.33;;;;;14.02;97.76;123734.88;5017098;28;45582;-84
2024/01/30 08:24:04;;;;;;;;;16.33;16.33;;;;;14.03;97.82;124427.03;5011437;28;45943;-84
2024/01/30 08:26:29;;;;;;;;;14.33;13.33;;;;;14.06;98.03;123744.41;5018651;28;47136;-85
2024/01/30 08:28:54;;;;;;;;;16.00;13.33;;;;;14.04;97.82;122014.59;5016944;28;45429;-83
2024/01/30 08:31:19;;;;;;;;;14.67;13.33;;;;;13.94;98.22;124753.91;5017387;28;45406;-87
2024/01/30 08:33:45;;;;;;;;;13.67;12.33;;;;;14.04;98.30;123049.22;5001931;28;57307;-86
2024/01/30 08:36:10;;;;;;;;;9.00;9.00;;;;;14.11;97.77;123408.91;5016866;28;45939;-84
2024/01/30 08:38:35;;;;;;;;;18.33;15.00;;;;;13.92;98.01;121990.63;5016288;28;62605;-84
2024/01/30 08:41:01;;;;;;;;;17.00;13.67;;;;;14.01;97.93;119940.00;5016067;28;61273;-87
2024/01/30 08:43:26;;;;;;;;;12.67;11.33;;;;;14.00;97.91;123041.88;5017356;28;45532;-84
2024/01/30 08:45:51;;;;;;;;;19.00;14.00;;;;;13.93;97.86;123027.16;5016710;28;49802;-86
2024/01/30 08:48:17;;;;;;;;;13.33;11.33;;;;;14.04;98.03;119602.50;5014414;28;45465;-86
2024/01/30 08:50:43;;;;;;;;;16.33;10.67;;;;;14.18;97.60;117562.41;5014221;28;45570;-87
2024/01/30 08:53:08;;;;;;;;;13.33;13.33;;;;;14.18;97.79;118940.78;5017175;28;45852;-87
2024/01/30 08:55:33;;;;;;;;;11.67;11.00;;;;;14.00;97.95;117181.78;5001625;28;46062;-87
2024/01/30 08:57:59;;;;;;;;;14.33;14.33;;;;;14.15;97.54;111015.78;5013183;28;45364;-83
2024/01/30 09:00:24;;;;;;;;;13.67;12.33;;;;;14.21;97.58;112403.44;5016595;28;45613;-83
2024/01/30 09:02:50;;;;;;;;;17.33;11.67;;;;;14.08;97.87;115821.28;5025193;28;45465;-80
2024/01/30 09:05:15;;;;;;;;;15.00;13.00;;;;;14.14;97.91;120657.19;4995942;28;47719;-82
2024/01/30 09:07:41;;;;;;;;;15.00;12.67;;;;;14.17;98.36;127217.53;5015602;28;45516;-82
2024/01/30 09:10:06;;;;;;;;;16.00;13.00;;;;;14.18;98.14;124112.75;5016568;28;45524;-84
2024/01/30 09:12:32;;;;;;;;;14.33;10.33;;;;;14.18;97.80;121353.00;5016570;28;45545;-85
2024/01/30 09:14:57;;;;;;;;;12.33;11.33;;;;;14.05;97.84;121672.91;5015908;28;45773;-80
2024/01/30 09:17:22;;;;;;;;;12.33;9.67;;;;;14.17;97.95;119283.41;4998471;28;45401;-79
2024/01/30 09:19:48;;;;;;;;;14.33;13.00;;;;;14.18;97.80;121353.00;5016322;28;45895;-83
2024/01/30 09:22:13;;;;;;;;;13.00;10.00;;;;;14.05;97.78;118226.28;5016296;28;45404;-81
2024/01/30 09:24:38;;;;;;;;;11.67;11.00;;;;;14.17;98.29;120316.53;4993113;28;48498;-79
2024/01/30 09:27:04;;;;;;;;;16.33;14.33;;;;;14.08;98.13;119266.06;4996618;28;45573;-79
2024/01/30 09:29:29;;;;;;;;;53.00;41.33;;;;;14.19;98.22;120320.63;5016014;28;45576;-79
2024/01/30 09:31:55;;;;;;;;;16.67;8.67;;;;;14.21;97.71;116534.94;5011462;28;45545;-78
2024/01/30 09:34:20;;;;;;;;;15.00;12.33;;;;;14.23;98.01;115505.59;5014092;28;47443;-80
2024/01/30 09:36:46;;;;;;;;;13.00;13.00;;;;;14.22;97.54;115159.25;5012192;28;45456;-83
2024/01/30 09:39:11;;;;;;;;;14.00;13.00;;;;;14.03;97.76;113057.84;5000403;28;45538;-82
2024/01/30 09:42:00;;;;;;;;;9.33;9.33;;;;;14.24;97.57;110000.97;5018403;28;45517;-83
2024/01/30 09:44:28;;;;;;;;;10.33;8.67;;;;;14.28;97.76;105883.16;4997345;28;48477;-82
2024/01/30 09:46:55;;;;;;;;;11.67;11.67;;;;;14.28;97.61;99560.03;5015758;28;45485;-83
2024/01/30 09:49:24;;;;;;;;;12.33;8.00;;;;;14.31;97.91;98769.19;5015959;28;45485;-84
2024/01/30 09:51:50;;;;;;;;;9.33;8.00;;;;;14.28;97.29;94701.88;5014129;28;46486;-82
2024/01/30 09:54:15;;;;;;;;;7.67;7.67;;;;;14.38;97.24;86770.44;5008113;28;47239;-83
2024/01/30 09:56:41;;;;;;;;;5.67;5.67;;;;;14.42;97.13;77527.31;5013951;28;45491;-82
2024/01/30 09:59:06;;;;;;;;;12.00;9.67;;;;;14.46;96.86;71138.41;5015520;28;45522;-84
2024/01/30 10:01:35;;;;;;;;;8.00;7.33;;;;;14.50;96.63;67185.84;5019153;28;45403;-86
2024/01/30 10:04:00;;;;;;;;;9.50;9.50;;;;;14.52;96.73;59901.84;5012293;28;46279;-85
2024/01/30 10:06:26;;;;;;;;;8.00;4.67;;;;;14.56;96.46;56320.66;4993764;28;45476;-85
2024/01/30 10:08:52;;;;;;;;;10.67;9.00;;;;;14.59;96.59;48630.03;5015380;28;45374;-84
2024/01/30 10:11:17;;;;;;;;;11.67;9.33;;;;;14.51;96.36;41434.75;5015817;28;45497;-85
2024/01/30 10:13:42;;;;;;;;;7.33;6.67;;;;;14.49;95.70;22966.81;5015060;28;61177;-82
2024/01/30 10:16:08;;;;;;;;;7.33;7.33;;;;;14.63;95.41;21499.78;5014730;28;62381;-81
2024/01/30 10:18:33;;;;;;;;;7.67;7.67;;;;;14.69;95.43;19051.81;5015803;28;45423;-86
2024/01/30 10:20:59;;;;;;;;;8.33;7.00;;;;;14.72;95.01;6331.94;5016775;28;45433;-85
2024/01/30 10:23:24;;;;;;;;;8.00;8.00;;;;;14.75;94.72;2514.59;5015349;28;45693;-84
2024/01/30 10:25:51;;;;;;;;;7.33;7.33;;;;;14.80;94.32;-3555.28;5001106;28;45558;-84
2024/01/30 10:28:17;;;;;;;;;10.67;7.67;;;;;14.83;93.90;-7421.19;5009576;28;45627;-83
2024/01/30 10:30:42;;;;;;;;;9.00;5.00;;;;;14.72;94.06;-8313.16;4996289;28;46040;-83
2024/01/30 10:33:07;;;;;;;;;5.00;3.67;;;;;14.75;93.74;-10867.63;5010909;28;45487;-82
2024/01/30 10:35:33;;;;;;;;;8.00;7.33;;;;;14.89;93.09;-14428.47;4991980;28;45457;-81
2024/01/30 10:37:59;;;;;;;;;7.00;5.00;;;;;14.91;93.42;-15666.75;4994181;28;45488;-81
2024/01/30 10:40:28;;;;;;;;;9.00;6.33;;;;;14.79;92.70;-17510.84;5014238;28;45522;-83
2024/01/30 10:42:55;;;;;;;;;8.67;7.33;;;;;14.96;92.59;-19155.28;5008975;28;45693;-81
2024/01/30 10:45:22;;;;;;;;;7.00;5.00;;;;;14.90;92.22;-19608.47;5014620;28;45551;-75
2024/01/30 10:47:52;;;;;;;;;7.00;7.00;;;;;14.82;92.25;-19606.31;5014003;28;45394;-76
2024/01/30 10:50:18;;;;;;;;;14.67;9.67;;;;;15.03;91.70;-19611.94;5012352;28;45601;-80
2024/01/30 10:52:45;;;;;;;;;8.33;8.00;;;;;14.98;91.47;-19610.59;4995728;28;48176;-77
2024/01/30 10:55:11;;;;;;;;;8.33;5.00;;;;;15.02;91.45;-19611.69;4999643;28;45469;-80
2024/01/30 10:57:37;;;;;;;;;7.67;6.67;;;;;14.94;91.25;-19609.53;5008789;28;45490;-80
2024/01/30 11:00:10;;;;;;;;;11.33;7.67;;;;;14.85;91.20;-19607.25;5012687;28;45620;-80
2024/01/30 11:02:38;;;;;;;;;10.67;8.00;;;;;14.74;91.30;-19604.44;5024100;28;46160;-80
2024/01/30 11:05:04;;;;;;;;;6.67;6.33;;;;;14.80;91.29;-19605.78;5025764;28;45616;-80
2024/01/30 11:07:30;;;;;;;;;6.33;6.33;;;;;14.70;91.13;-19603.34;5021458;28;45410;-79
2024/01/30 11:09:58;;;;;;;;;7.67;7.67;;;;;14.72;91.27;-19603.75;5026458;28;45424;-78
2024/01/30 11:12:27;;;;;;;;;10.33;8.33;;;;;14.40;90.81;-19595.28;5012886;28;48242;-81
2024/01/30 11:15:03;;;;;;;;;7.00;4.00;;;;;14.60;90.12;-19600.53;5004560;28;45701;-81
2024/01/30 11:17:42;;;;;;;;;6.00;6.00;;;;;14.42;90.45;-19595.84;5025055;28;45481;-81
2024/01/30 11:20:21;;;;;;;;;7.00;4.33;;;;;14.53;90.15;-19598.91;5032949;28;45895;-79
2024/01/30 11:22:50;;;;;;;;;6.33;6.33;;;;;14.53;90.15;-19598.91;5023019;28;45739;-79
2024/01/30 11:25:17;;;;;;;;;6.67;4.00;;;;;14.51;89.87;-19598.38;5004011;28;45519;-77
2024/01/30 11:27:44;;;;;;;;;4.00;4.00;;;;;14.37;89.79;-19594.63;5032697;28;45566;-77
2024/01/30 11:30:09;;;;;;;;;4.33;4.00;;;;;14.38;89.80;-19594.75;5029406;28;45447;-78
2024/01/30 11:32:35;;;;;;;;;3.25;3.00;;;;;14.63;89.07;-19601.47;5008346;28;46508;-78
2024/01/30 11:35:05;;;;;;;;;7.00;3.67;;;;;14.67;89.12;-19602.41;5033085;28;45815;-77
2024/01/30 11:37:31;;;;;;;;;6.33;4.33;;;;;14.70;88.53;-19603.22;5029676;28;45521;-78
2024/01/30 11:39:57;;;;;;;;;6.00;3.00;;;;;14.71;88.09;-19603.63;5022245;28;45521;-78
2024/01/30 11:42:24;;;;;;;;;4.33;4.00;;;;;14.66;88.02;-19602.28;5030684;28;46205;-79
2024/01/30 11:44:50;;;;;;;;;4.00;3.00;;;;;14.53;87.42;-19598.78;5025707;28;45576;-79
2024/01/30 11:47:16;;;;;;;;;5.67;4.00;;;;;14.55;87.62;-19599.31;5028764;28;45519;-79
2024/01/30 11:49:48;;;;;;;;;5.67;3.33;;;;;14.66;87.96;-19602.16;5005481;28;45485;-80
2024/01/30 11:52:14;;;;;;;;;6.67;6.67;;;;;14.74;87.28;-19604.28;5033840;28;46022;-77
2024/01/30 11:54:40;;;;;;;;;4.25;4.25;;;;;14.74;86.72;-19604.28;5026260;28;45466;-77
2024/01/30 11:57:05;;;;;;;;;4.00;3.67;;;;;14.73;86.62;-19604.03;5027678;28;45992;-78
2024/01/30 11:59:30;;;;;;;;;8.67;3.33;;;;;14.71;86.75;-19603.63;5034673;28;45442;-78
2024/01/30 12:01:56;;;;;;;;;4.00;3.00;;;;;14.51;86.67;-19598.25;5030299;28;51279;-79
2024/01/30 12:04:22;;;;;;;;;5.00;5.00;;;;;14.80;86.78;-19605.78;5016598;28;45496;-81
2024/01/30 12:06:51;;;;;;;;;6.67;6.67;;;;;14.84;86.48;-19606.84;5012661;28;45453;-80
2024/01/30 12:09:17;;;;;;;;;4.75;4.00;;;;;14.70;86.15;-19603.34;5008149;28;45424;-79
2024/01/30 12:11:49;;;;;;;;;5.00;3.00;;;;;14.93;86.11;-19609.41;5015917;28;46336;-77
2024/01/30 12:14:16;;;;;;;;;5.50;3.25;;;;;14.93;85.59;-19609.41;4998259;28;45855;-79
2024/01/30 12:16:42;;;;;;;;;4.00;4.00;;;;;14.83;85.86;-19606.59;5013695;28;45778;-78
2024/01/30 12:19:08;;;;;;;;;4.00;2.00;;;;;14.91;85.83;-19608.88;5013431;28;45683;-78
2024/01/30 12:21:34;;;;;;;;;2.25;2.25;;;;;14.90;85.53;-19608.59;5016701;28;45469;-77
2024/01/30 12:24:00;;;;;;;;;12.33;11.33;;;;;14.89;85.58;-19608.19;5013021;28;45707;-78
2024/01/30 12:26:26;;;;;;;;;3.50;3.50;;;;;14.86;85.66;-19607.50;5013022;28;45414;-78
2024/01/30 12:28:55;;;;;;;;;3.75;3.00;;;;;14.91;85.94;-19608.72;5017279;28;45653;-78
2024/01/30 12:31:27;;;;;;;;;3.25;3.25;;;;;14.93;84.82;-19609.25;5012479;28;46375;-78
2024/01/30 12:33:53;;;;;;;;;4.00;4.00;;;;;14.78;84.45;-19605.38;5017162;28;45520;-78
2024/01/30 12:36:18;;;;;;;;;3.00;3.00;;;;;14.90;84.46;-19608.47;5017714;28;45434;-78
2024/01/30 12:38:43;;;;;;;;;5.50;3.00;;;;;14.90;84.29;-19608.59;5017097;28;45450;-77
2024/01/30 12:41:09;;;;;;;;;2.25;2.25;;;;;14.91;84.05;-19608.88;5016483;28;57584;-78
2024/01/30 12:43:35;;;;;;;;;0.75;0.00;;;;;14.91;84.15;-19608.72;5016481;28;45535;-78
2024/01/30 12:46:00;;;;;;;;;2.50;2.00;;;;;14.91;83.86;-19608.88;5017800;28;45477;-77
2024/01/30 12:48:28;;;;;;;;;2.00;2.00;;;;;14.91;83.60;-19608.72;5017413;28;45489;-79
2024/01/30 12:50:54;;;;;;;;;2.50;2.50;;;;;14.91;83.60;-19608.72;5017083;28;45774;-79
2024/01/30 12:53:19;;;;;;;;;4.00;4.00;;;;;14.92;83.34;-19609.00;5017069;28;45427;-78
2024/01/30 12:55:45;;;;;;;;;2.00;2.00;;;;;14.73;83.21;-19604.16;5008812;28;45517;-78
2024/01/30 12:58:10;;;;;;;;;3.00;1.75;;;;;14.92;82.08;-19609.13;5016803;28;45514;-77
2024/01/30 13:00:35;;;;;;;;;2.50;2.50;;;;;14.98;81.80;-19610.75;4999372;28;46007;-77
2024/01/30 13:03:01;;;;;;;;;1.50;1.50;;;;;14.88;81.45;-19608.06;5026214;28;45580;-77
2024/01/30 13:05:27;;;;;;;;;1.00;1.00;;;;;14.87;81.51;-19607.66;5036077;28;45619;-77
2024/01/30 13:07:53;;;;;;;;;4.33;2.33;;;;;14.95;81.31;-19609.81;5027641;28;45583;-77
2024/01/30 13:10:18;;;;;;;;;3.00;1.00;;;;;14.97;81.07;-19610.34;5028979;28;46173;-81
2024/01/30 13:12:44;;;;;;;;;1.00;1.00;;;;;15.01;81.08;-19611.28;5033514;28;45582;-81
2024/01/30 13:15:11;;;;;;;;;1.25;1.25;;;;;14.99;79.88;-19611.00;5026746;28;49690;-81
2024/01/30 13:17:36;;;;;;;;;0.50;0.50;;;;;14.82;79.84;-19606.44;5033287;28;45566;-80
2024/01/30 13:20:03;;;;;;;;;2.00;1.00;;;;;14.99;79.36;-19610.88;5021209;28;48492;-80
2024/01/30 13:22:28;;;;;;;;;0.50;0.50;;;;;14.96;78.69;-19610.06;5031072;28;45454;-82
2024/01/30 13:24:54;;;;;;;;;1.50;1.50;;;;;14.84;78.09;-19606.97;5018307;28;45378;-80
2024/01/30 13:27:20;;;;;;;;;0.50;0.50;;;;;14.86;78.53;-19607.38;5034088;28;45367;-84
2024/01/30 13:29:46;;;;;;;;;4.00;1.00;;;;;14.86;78.03;-19607.38;5031731;28;45673;-82
2024/01/30 13:32:11;;;;;;;;;2.75;1.00;;;;;14.85;77.24;-19607.13;5033326;28;45436;-80
2024/01/30 13:34:36;;;;;;;;;1.75;1.25;;;;;14.89;76.73;-19608.19;5023496;28;45588;-81
2024/01/30 13:37:02;;;;;;;;;1.50;1.50;;;;;14.91;77.16;-19608.88;5033944;28;45738;-82
2024/01/30 13:39:29;;;;;;;;;4.75;2.00;;;;;14.77;76.75;-19605.25;5023603;28;46112;-81
2024/01/30 13:41:54;;;;;;;;;2.50;1.00;;;;;14.89;76.11;-19608.31;5005891;28;45528;-80
2024/01/30 13:44:20;;;;;;;;;2.25;1.00;;;;;14.68;76.29;-19602.81;5026700;28;45490;-81
2024/01/30 13:46:46;;;;;;;;;3.75;2.50;;;;;14.78;75.66;-19605.50;5033797;28;45386;-81
2024/01/30 13:49:12;;;;;;;;;1.00;1.00;;;;;14.80;75.53;-19605.91;5025387;28;47419;-81
2024/01/30 13:51:37;;;;;;;;;1.00;1.00;;;;;14.91;75.60;-19608.88;5032175;28;45402;-81
2024/01/30 13:54:02;;;;;;;;;1.00;1.00;;;;;14.97;75.67;-19610.34;5005396;28;56366;-82
2024/01/30 13:56:29;;;;;;;;;1.75;1.75;;;;;15.01;75.68;-19611.28;5030297;28;45406;-82
2024/01/30 13:58:56;;;;;;;;;0.50;0.00;;;;;14.99;74.41;-19610.88;5026584;28;48776;-82
2024/01/30 14:01:21;;;;;;;;;0.00;0.00;;;;;14.95;74.05;-19609.94;5030956;28;45560;-83
2024/01/30 14:03:47;;;;;;;;;1.00;0.00;;;;;14.99;74.07;-19610.88;5022881;28;45489;-82
2024/01/30 14:06:12;;;;;;;;;2.00;1.00;;;;;15.05;73.93;-19612.34;5018237;28;45872;-81
2024/01/30 14:08:38;;;;;;;;;1.00;1.00;;;;;14.93;73.97;-19609.41;5016385;28;47028;-80
2024/01/30 14:11:03;;;;;;;;;0.50;0.50;;;;;15.10;73.20;-19613.81;5015817;28;45773;-80
2024/01/30 14:13:29;;;;;;;;;1.00;1.00;;;;;14.99;73.02;-19610.88;5016455;28;45552;-81
2024/01/30 14:15:55;;;;;;;;;0.00;0.00;;;;;14.98;73.14;-19610.75;5015066;28;45589;-81
2024/01/30 14:18:20;;;;;;;;;0.00;0.00;;;;;15.04;72.58;-19612.09;5015717;28;45442;-82
2024/01/30 14:20:46;;;;;;;;;1.00;1.00;;;;;14.91;72.56;-19608.72;5022736;28;45664;-80
2024/01/30 14:23:11;;;;;;;;;0.00;0.00;;;;;14.98;72.39;-19610.59;5003585;28;45567;-80
2024/01/30 14:25:36;;;;;;;;;1.00;1.00;;;;;14.97;72.09;-19610.34;5009455;28;45977;-81
2024/01/30 14:28:02;;;;;;;;;1.00;1.00;;;;;14.88;72.42;-19607.91;5015928;28;52460;-79
2024/01/30 14:30:27;;;;;;;;;1.00;1.00;;;;;14.87;71.82;-19607.78;5015423;28;45524;-82
2024/01/30 14:32:52;;;;;;;;;0.00;0.00;;;;;14.97;71.30;-19610.47;4998234;28;45526;-80
2024/01/30 14:35:19;;;;;;;;;0.00;0.00;;;;;14.93;71.61;-19609.25;5017834;28;45545;-83
2024/01/30 14:37:44;;;;;;;;;1.00;1.00;;;;;14.87;71.62;-19607.78;5015286;28;46706;-81
2024/01/30 14:40:10;;;;;;;;;0.25;0.25;;;;;14.83;71.56;-19606.59;5016457;28;45402;-80
2024/01/30 14:42:37;;;;;;;;;0.25;0.25;;;;;14.73;71.83;-19604.16;5018471;28;45787;-80
2024/01/30 14:45:03;;;;;;;;;0.00;0.00;;;;;14.62;71.44;-19601.22;5020055;28;45883;-79
2024/01/30 14:47:28;;;;;;;;;1.00;1.00;;;;;14.73;71.76;-19604.16;5020346;28;45667;-79
2024/01/30 14:49:53;;;;;;;;;1.00;1.00;;;;;14.50;72.30;-19598.13;5015346;28;46396;-79
2024/01/30 14:52:19;;;;;;;;;0.25;0.25;;;;;14.82;72.31;-19606.44;5016164;28;45442;-80
2024/01/30 14:54:44;;;;;;;;;1.00;1.00;;;;;14.85;71.44;-19607.25;5009688;28;45371;-81
2024/01/30 14:57:10;;;;;;;;;0.25;0.25;;;;;14.87;71.06;-19607.66;5014832;28;56655;-81
2024/01/30 14:59:36;;;;;;;;;1.00;0.00;;;;;14.86;70.90;-19607.50;5015005;28;45421;-78
2024/01/30 15:02:01;;;;;;;;;26.00;19.33;;;;;14.87;70.37;-19607.66;5021452;28;45421;-78
2024/01/30 15:04:26;;;;;;;;;1.25;1.00;;;;;14.89;69.72;-19608.31;5032786;28;45465;-80
2024/01/30 15:06:52;;;;;;;;;0.00;0.00;;;;;14.85;69.47;-19607.25;5019117;28;46346;-81
2024/01/30 15:09:17;;;;;;;;;0.00;0.00;;;;;14.79;70.08;-19605.63;5028482;28;45379;-80
2024/01/30 15:11:44;;;;;;;;;2.00;1.00;;;;;14.57;69.74;-19600.00;5030512;28;45802;-80
2024/01/30 15:14:10;;;;;;;;;1.75;1.00;;;;;14.52;70.02;-19598.53;5031841;28;45649;-80
2024/01/30 15:16:35;;;;;;;;;3.00;1.00;;;;;14.52;70.26;-19598.66;5001758;28;62275;-79
2024/01/30 15:19:01;;;;;;;;;2.00;2.00;;;;;14.28;70.44;-19592.34;5028576;28;45814;-82
2024/01/30 15:21:28;;;;;;;;;1.75;1.00;;;;;14.41;69.81;-19595.69;5032541;28;45443;-81
2024/01/30 15:23:54;;;;;;;;;2.50;1.00;;;;;14.31;69.86;-19593.16;5022521;28;45465;-80
2024/01/30 15:26:19;;;;;;;;;1.75;1.00;;;;;14.23;70.16;-19591.00;5021677;28;46289;-80
2024/01/30 15:28:45;;;;;;;;;1.50;1.50;;;;;14.08;69.86;-19586.97;5012960;28;58932;-80
2024/01/30 15:31:10;;;;;;;;;1.00;1.00;;;;;14.20;70.59;-19590.06;5033998;28;45508;-80
2024/01/30 15:33:36;;;;;;;;;2.75;1.00;;;;;13.97;70.75;-19584.00;5025178;28;45598;-79
2024/01/30 15:36:02;;;;;;;;;1.00;1.00;;;;;13.95;70.15;-19583.59;5029973;28;46141;-80
2024/01/30 15:38:28;;;;;;;;;1.75;1.00;;;;;14.04;70.38;-19585.88;5031932;28;45789;-80
2024/01/30 15:40:53;;;;;;;;;3.25;2.00;;;;;14.10;70.29;-19587.50;5025287;28;45418;-80
2024/01/30 15:43:19;;;;;;;;;1.00;1.00;;;;;14.12;70.51;-19588.03;5026187;28;45592;-81
2024/01/30 15:45:44;;;;;;;;;1.00;1.00;;;;;14.03;70.33;-19585.75;5029685;28;45668;-79
2024/01/30 15:48:10;;;;;;;;;1.00;1.00;;;;;14.02;70.61;-19585.50;5030874;28;45418;-81
2024/01/30 15:50:35;;;;;;;;;1.00;1.00;;;;;14.14;70.34;-19588.72;5006512;28;45440;-80
2024/01/30 15:53:00;;;;;;;;;3.00;1.50;;;;;14.05;70.45;-19586.16;5013269;28;45679;-79
2024/01/30 15:55:26;;;;;;;;;2.25;2.25;;;;;14.07;70.23;-19586.84;5024333;28;46509;-79
2024/01/30 15:57:51;;;;;;;;;1.00;1.00;;;;;13.84;70.31;-19580.66;5033241;28;50855;-79
2024/01/30 16:00:16;;;;;;;;;4.00;4.00;;;;;13.95;70.88;-19583.59;5023922;28;45929;-80
2024/01/30 16:02:42;;;;;;;;;7.33;5.33;;;;;13.85;70.97;-19580.91;5030840;28;45442;-79
2024/01/30 16:05:08;;;;;;;;;2.00;2.00;;;;;13.77;71.14;-19578.78;5014795;28;48309;-79
2024/01/30 16:07:34;;;;;;;;;7.00;5.33;;;;;13.83;71.38;-19580.38;5023939;28;45544;-80
2024/01/30 16:10:00;;;;;;;;;4.00;4.00;;;;;13.78;71.55;-19579.16;5021520;28;45775;-79
2024/01/30 16:12:25;;;;;;;;;2.25;1.25;;;;;13.64;71.49;-19575.41;5032315;28;45593;-79
2024/01/30 16:14:50;;;;;;;;;2.00;2.00;;;;;13.70;71.38;-19577.03;5025524;28;46273;-79